createdAt,value
2018-05-13T00:03:01.402Z,17.37
2018-05-13T00:06:33.900Z,15.67
2018-05-13T00:10:07.147Z,15.87
2018-05-13T00:13:39.655Z,18.60
2018-05-13T00:17:12.151Z,18.63
2018-05-13T00:20:44.647Z,17.90
2018-05-13T00:24:17.904Z,18.63
2018-05-13T00:27:50.397Z,18.17
2018-05-13T00:31:22.879Z,19.43
2018-05-13T00:34:55.362Z,18.17
2018-05-13T00:38:27.860Z,19.90
2018-05-13T00:42:00.353Z,18.17
2018-05-13T00:45:33.611Z,19.90
2018-05-13T00:49:06.089Z,18.00
2018-05-13T00:52:39.343Z,18.07
2018-05-13T00:56:12.608Z,18.07
2018-05-13T00:59:45.087Z,19.20
2018-05-13T01:03:18.392Z,17.07
2018-05-13T01:06:50.874Z,18.53
2018-05-13T01:10:23.365Z,17.43
2018-05-13T01:13:55.851Z,18.47
2018-05-13T01:17:28.334Z,17.83
2018-05-13T01:21:00.821Z,18.17
2018-05-13T01:24:34.079Z,19.90
2018-05-13T01:28:06.553Z,21.20
2018-05-13T01:31:39.052Z,19.27
2018-05-13T01:35:11.524Z,17.73
2018-05-13T01:38:44.014Z,21.43
2018-05-13T01:42:16.499Z,19.27
2018-05-13T01:45:49.047Z,17.40
2018-05-13T01:49:21.599Z,18.93
2018-05-13T01:52:54.912Z,19.17
2018-05-13T01:56:27.384Z,18.00
2018-05-13T01:59:59.871Z,21.00
2018-05-13T02:03:33.136Z,19.03
2018-05-13T02:07:05.667Z,20.27
2018-05-13T02:10:38.136Z,17.90
2018-05-13T02:14:11.408Z,20.73
2018-05-13T02:17:43.896Z,18.27
2018-05-13T02:21:16.376Z,19.37
2018-05-13T02:24:48.859Z,17.83
2018-05-13T02:28:21.342Z,17.90
2018-05-13T02:31:53.826Z,20.90
2018-05-13T02:35:26.319Z,19.87
2018-05-13T02:38:59.569Z,19.03
2018-05-13T02:42:32.080Z,19.33
2018-05-13T02:46:04.570Z,19.63
2018-05-13T02:49:37.061Z,20.07
2018-05-13T02:53:09.532Z,19.43
2018-05-13T02:56:42.021Z,20.50
2018-05-13T03:00:14.508Z,18.90
2018-05-13T03:03:47.006Z,19.50
2018-05-13T03:07:20.261Z,21.30
2018-05-13T03:10:52.731Z,19.77
2018-05-13T03:14:25.231Z,21.03
2018-05-13T03:17:57.712Z,22.20
2018-05-13T03:21:30.211Z,19.50
2018-05-13T03:25:02.704Z,21.67
2018-05-13T03:28:35.199Z,21.90
2018-05-13T03:32:08.443Z,20.30
2018-05-13T03:35:40.940Z,22.80
2018-05-13T03:39:13.444Z,23.17
2018-05-13T03:42:45.918Z,21.53
2018-05-13T03:46:18.407Z,17.80
2018-05-13T03:49:50.908Z,20.30
2018-05-13T03:53:23.389Z,19.30
2018-05-13T03:56:56.656Z,22.00
2018-05-13T04:00:29.153Z,21.30
2018-05-13T04:04:01.635Z,22.57
2018-05-13T04:07:39.956Z,22.00
2018-05-13T04:11:24.375Z,23.00
2018-05-13T04:19:07.533Z,21.70
2018-05-13T04:22:40.005Z,22.43
2018-05-13T04:26:12.495Z,19.57
2018-05-13T04:29:44.988Z,23.00
2018-05-13T04:33:17.462Z,20.80
2018-05-13T04:36:49.968Z,19.67
2018-05-13T04:40:22.441Z,20.30
2018-05-13T04:43:54.928Z,19.90
2018-05-13T04:47:27.400Z,19.93
2018-05-13T04:50:59.936Z,16.40
2018-05-13T04:54:33.180Z,19.10
2018-05-13T04:58:05.674Z,19.27
2018-05-13T05:01:38.175Z,18.70
2018-05-13T05:05:10.647Z,20.37
2018-05-13T05:08:43.119Z,19.77
2018-05-13T05:12:15.599Z,20.63
2018-05-13T05:15:48.091Z,19.80
2018-05-13T05:19:20.567Z,18.30
2018-05-13T05:22:53.049Z,16.70
2018-05-13T05:26:25.521Z,19.90
2018-05-13T05:29:58.001Z,18.30
2018-05-13T05:33:30.475Z,17.30
2018-05-13T05:37:02.961Z,17.43
2018-05-13T05:40:35.449Z,16.70
2018-05-13T05:44:07.937Z,16.90
2018-05-13T05:47:40.420Z,17.77
2018-05-13T05:51:12.896Z,17.57
2018-05-13T05:58:42.115Z,17.67
2018-05-13T06:02:14.596Z,19.37
2018-05-13T06:05:47.084Z,15.57
2018-05-13T06:09:19.568Z,16.33
2018-05-13T06:12:52.048Z,15.17
2018-05-13T06:16:24.515Z,17.33
2018-05-13T06:19:57.004Z,18.07
2018-05-13T06:23:29.496Z,18.67
2018-05-13T06:27:01.984Z,18.30
2018-05-13T06:30:34.455Z,16.30
2018-05-13T06:34:06.928Z,16.00
2018-05-13T06:37:39.411Z,16.20
2018-05-13T06:41:11.881Z,17.63
2018-05-13T06:44:44.391Z,18.33
2018-05-13T06:48:16.875Z,16.77
2018-05-13T06:51:49.373Z,17.50
2018-05-13T06:55:21.840Z,17.03
2018-05-13T06:58:54.333Z,15.27
2018-05-13T07:02:26.816Z,17.80
2018-05-13T07:05:59.284Z,16.60
2018-05-13T07:09:31.772Z,17.87
2018-05-13T07:13:04.263Z,17.43
2018-05-13T07:16:36.749Z,16.40
2018-05-13T07:20:09.219Z,18.60
2018-05-13T07:23:41.699Z,17.17
2018-05-13T07:27:14.188Z,17.13
2018-05-13T07:30:46.660Z,17.97
2018-05-13T07:34:19.135Z,16.60
2018-05-13T07:37:51.630Z,17.10
2018-05-13T07:41:24.108Z,17.80
2018-05-13T07:44:56.579Z,17.47
2018-05-13T07:48:29.054Z,17.87
2018-05-13T07:52:01.549Z,16.53
2018-05-13T07:55:34.037Z,18.90
2018-05-13T07:59:06.532Z,17.53
2018-05-13T08:02:39.015Z,17.00
2018-05-13T08:06:11.562Z,18.57
2018-05-13T08:09:43.973Z,17.33
2018-05-13T08:13:16.451Z,17.10
2018-05-13T08:16:48.932Z,16.63
2018-05-13T08:20:21.473Z,16.10
2018-05-13T08:23:53.912Z,17.70
2018-05-13T08:27:26.400Z,15.53
2018-05-13T08:30:59.411Z,15.23
2018-05-13T08:34:31.887Z,14.70
2018-05-13T08:38:05.140Z,16.50
2018-05-13T08:41:37.630Z,16.77
2018-05-13T08:45:10.132Z,15.40
2018-05-13T08:48:42.609Z,16.17
2018-05-13T08:52:15.101Z,15.30
2018-05-13T08:55:47.604Z,14.30
2018-05-13T08:59:20.115Z,15.70
2018-05-13T09:02:52.592Z,15.53
2018-05-13T09:06:25.079Z,15.40
2018-05-13T09:09:57.555Z,15.70
2018-05-13T09:13:30.064Z,15.37
2018-05-13T09:17:02.552Z,16.20
2018-05-13T09:20:35.113Z,13.97
2018-05-13T09:24:08.308Z,15.27
2018-05-13T09:27:40.781Z,11.93
2018-05-13T09:31:13.272Z,11.20
2018-05-13T09:34:45.764Z,11.20
2018-05-13T09:38:18.252Z,10.83
2018-05-13T09:41:50.730Z,9.90
2018-05-13T09:45:23.229Z,12.13
2018-05-13T09:48:55.712Z,12.53
2018-05-13T09:52:28.200Z,12.40
2018-05-13T09:56:00.703Z,15.03
2018-05-13T09:59:33.964Z,11.60
2018-05-13T10:03:06.451Z,13.27
2018-05-13T10:06:38.944Z,11.30
2018-05-13T10:10:11.442Z,11.20
2018-05-13T10:13:43.924Z,12.23
2018-05-13T10:17:17.168Z,13.23
2018-05-13T10:20:49.654Z,12.20
2018-05-13T10:24:22.146Z,11.60
2018-05-13T10:27:55.024Z,12.13
2018-05-13T10:31:27.496Z,11.63
2018-05-13T10:34:59.996Z,11.93
2018-05-13T10:38:32.534Z,11.80
2018-05-13T10:42:05.776Z,11.10
2018-05-13T10:45:39.465Z,12.77
2018-05-13T10:49:11.983Z,12.07
2018-05-13T10:52:44.468Z,12.60
2018-05-13T10:56:16.948Z,12.60
2018-05-13T10:59:49.443Z,11.10
2018-05-13T11:03:21.928Z,11.60
2018-05-13T11:06:54.399Z,10.90
2018-05-13T11:10:26.902Z,12.40
2018-05-13T11:13:59.398Z,11.43
2018-05-13T11:17:32.656Z,12.47
2018-05-13T11:21:05.136Z,11.70
2018-05-13T11:24:37.623Z,12.23
2018-05-13T11:28:10.106Z,11.33
2018-05-13T11:31:42.597Z,11.57
2018-05-13T11:35:15.068Z,11.53
2018-05-13T11:38:47.544Z,9.90
2018-05-13T11:42:20.028Z,9.37
2018-05-13T11:45:52.496Z,8.80
2018-05-13T11:49:24.977Z,9.80
2018-05-13T11:52:57.464Z,10.80
2018-05-13T11:56:30.031Z,9.37
2018-05-13T12:00:02.697Z,9.83
2018-05-13T12:03:35.940Z,11.30
2018-05-13T12:07:08.420Z,8.60
2018-05-13T12:10:41.256Z,9.40
2018-05-13T12:14:13.748Z,10.10
2018-05-13T12:17:47.001Z,10.10
2018-05-13T12:21:20.252Z,9.50
2018-05-13T12:24:53.503Z,10.53
2018-05-13T12:28:25.976Z,9.93
2018-05-13T12:31:58.452Z,9.47
2018-05-13T12:35:30.920Z,9.23
2018-05-13T12:39:03.425Z,10.60
2018-05-13T12:42:35.906Z,9.87
2018-05-13T12:46:08.391Z,10.27
2018-05-13T12:49:40.855Z,10.23
2018-05-13T12:53:13.344Z,9.53
2018-05-13T12:56:45.817Z,8.90
2018-05-13T13:00:18.300Z,10.90
2018-05-13T13:03:50.846Z,11.13
2018-05-13T13:07:23.289Z,10.57
2018-05-13T13:10:55.784Z,11.40
2018-05-13T13:14:28.256Z,10.73
2018-05-13T13:18:00.754Z,10.50
2018-05-13T13:21:33.233Z,9.17
2018-05-13T13:25:05.734Z,9.70
2018-05-13T13:28:38.236Z,9.50
2018-05-13T13:32:10.721Z,9.40
2018-05-13T13:35:43.222Z,10.17
2018-05-13T13:39:15.699Z,9.10
2018-05-13T13:42:48.221Z,9.80
2018-05-13T13:46:20.737Z,9.20
2018-05-13T13:49:59.842Z,9.53
2018-05-13T13:53:32.416Z,11.03
2018-05-13T13:57:04.823Z,10.57
2018-05-13T14:00:38.077Z,9.63
2018-05-13T14:04:10.567Z,10.90
2018-05-13T14:07:43.043Z,10.00
2018-05-13T14:11:15.525Z,10.00
2018-05-13T14:14:48.024Z,10.17
2018-05-13T14:18:20.492Z,9.53
2018-05-13T14:21:52.980Z,9.50
2018-05-13T14:25:25.470Z,9.20
2018-05-13T14:28:57.978Z,8.33
2018-05-13T14:32:30.522Z,10.30
2018-05-13T14:36:02.992Z,8.50
2018-05-13T14:39:35.488Z,9.40
2018-05-13T14:43:07.969Z,10.20
2018-05-13T14:46:40.475Z,10.00
2018-05-13T14:50:12.965Z,12.00
2018-05-13T14:53:45.455Z,9.10
2018-05-13T14:57:18.702Z,10.60
2018-05-13T15:00:51.193Z,11.40
2018-05-13T15:04:23.669Z,9.07
2018-05-13T15:07:56.133Z,8.87
2018-05-13T15:11:28.628Z,10.23
2018-05-13T15:15:01.120Z,10.20
2018-05-13T15:18:33.598Z,10.37
2018-05-13T15:22:06.089Z,10.50
2018-05-13T15:25:38.567Z,10.40
2018-05-13T15:29:11.072Z,10.47
2018-05-13T15:32:43.555Z,9.60
2018-05-13T15:36:16.029Z,10.13
2018-05-13T15:39:48.516Z,9.03
2018-05-13T15:43:21.013Z,10.30
2018-05-13T15:46:53.472Z,10.80
2018-05-13T15:50:25.967Z,11.67
2018-05-13T15:53:58.478Z,10.87
2018-05-13T15:57:32.092Z,10.80
2018-05-13T16:01:04.587Z,10.03
2018-05-13T16:04:37.068Z,11.23
2018-05-13T16:08:09.567Z,10.50
2018-05-13T16:11:42.048Z,10.50
2018-05-13T16:15:14.534Z,11.13
2018-05-13T16:18:47.100Z,10.67
2018-05-13T16:22:20.280Z,10.23
2018-05-13T16:25:53.536Z,12.30
2018-05-13T16:29:26.028Z,15.00
2018-05-13T16:32:58.512Z,14.17
2018-05-13T16:36:30.982Z,16.67
2018-05-13T16:40:03.473Z,15.37
2018-05-13T16:43:35.958Z,15.77
2018-05-13T16:47:08.481Z,16.47
2018-05-13T16:50:40.961Z,15.30
2018-05-13T16:54:13.464Z,17.80
2018-05-13T16:57:45.966Z,16.17
2018-05-13T17:01:18.477Z,15.23
2018-05-13T17:04:51.070Z,16.33
2018-05-13T17:08:23.579Z,15.57
2018-05-13T17:11:56.094Z,16.50
2018-05-13T17:15:28.569Z,14.40
2018-05-13T17:19:01.073Z,16.50
2018-05-13T17:22:33.564Z,15.60
2018-05-13T17:26:06.048Z,17.47
2018-05-13T17:29:38.588Z,16.93
2018-05-13T17:33:11.371Z,17.13
2018-05-13T17:36:44.288Z,17.03
2018-05-13T17:40:16.788Z,17.57
2018-05-13T17:43:49.329Z,20.83
2018-05-13T17:47:21.821Z,20.40
2018-05-13T17:50:54.342Z,19.03
2018-05-13T17:54:26.819Z,21.93
2018-05-13T17:57:59.372Z,21.37
2018-05-13T18:01:31.860Z,22.20
2018-05-13T18:05:04.341Z,23.27
2018-05-13T18:08:36.824Z,23.20
2018-05-13T18:12:09.325Z,24.60
2018-05-13T18:15:41.815Z,20.50
2018-05-13T18:19:14.297Z,21.47
2018-05-13T18:22:46.784Z,23.60
2018-05-13T18:26:19.263Z,22.23
2018-05-13T18:29:51.744Z,19.70
2018-05-13T18:33:24.224Z,21.07
2018-05-13T18:41:04.780Z,19.07
2018-05-13T18:44:37.294Z,20.60
2018-05-13T18:48:09.784Z,18.07
2018-05-13T18:51:42.356Z,18.87
2018-05-13T18:55:14.995Z,19.00
2018-05-13T18:58:48.536Z,19.57
2018-05-13T19:02:21.156Z,19.20
2018-05-13T19:05:53.692Z,18.80
2018-05-13T19:09:26.244Z,17.90
2018-05-13T19:12:58.738Z,19.20
2018-05-13T19:16:31.259Z,17.80
2018-05-13T19:20:04.195Z,15.97
2018-05-13T19:23:37.442Z,15.67
2018-05-13T19:27:09.954Z,16.53
2018-05-13T19:30:42.461Z,19.00
2018-05-13T19:34:15.746Z,18.50
2018-05-13T19:37:48.225Z,18.07
2018-05-13T19:41:20.715Z,17.67
2018-05-13T19:44:53.963Z,18.60
2018-05-13T19:48:26.456Z,17.07
2018-05-13T19:51:58.941Z,18.20
2018-05-13T19:55:31.428Z,19.63
2018-05-13T19:59:03.928Z,17.83
2018-05-13T20:02:36.419Z,24.10
2018-05-13T20:06:08.903Z,25.30
2018-05-13T20:09:41.387Z,25.43
2018-05-13T20:13:14.649Z,39.90
2018-05-13T20:16:47.145Z,43.60
2018-05-13T20:20:20.109Z,25.87
2018-05-13T20:23:52.601Z,24.27
2018-05-13T20:27:25.078Z,28.03
2018-05-13T20:30:57.656Z,26.37
2018-05-13T20:34:30.143Z,25.90
2018-05-13T20:38:02.639Z,21.90
2018-05-13T20:41:35.114Z,23.60
2018-05-13T20:45:07.829Z,21.10
2018-05-13T20:48:40.425Z,19.60
2018-05-13T20:52:13.734Z,16.90
2018-05-13T20:55:47.065Z,16.63
2018-05-13T20:59:19.563Z,17.07
2018-05-13T21:02:52.128Z,15.77
2018-05-13T21:06:24.618Z,17.73
2018-05-13T21:09:57.151Z,16.60
2018-05-13T21:13:29.659Z,17.13
2018-05-13T21:17:02.896Z,17.30
2018-05-13T21:20:35.383Z,17.80
2018-05-13T21:24:07.872Z,17.27
2018-05-13T21:27:40.375Z,17.90
2018-05-13T21:31:13.646Z,17.87
2018-05-13T21:34:46.146Z,16.03
2018-05-13T21:38:18.627Z,17.20
2018-05-13T21:41:51.105Z,17.70
2018-05-13T21:45:23.595Z,18.67
2018-05-13T21:48:56.078Z,18.33
2018-05-13T21:52:28.564Z,18.53
2018-05-13T21:56:01.037Z,18.17
2018-05-13T21:59:33.524Z,17.90
2018-05-13T22:03:06.003Z,17.53
2018-05-13T22:06:38.548Z,21.70
2018-05-13T22:10:11.028Z,19.97
2018-05-13T22:13:43.526Z,21.17
2018-05-13T22:17:16.012Z,16.97
2018-05-13T22:20:48.488Z,18.13
2018-05-13T22:24:20.987Z,18.30
2018-05-13T22:27:54.278Z,15.80
2018-05-13T22:31:26.765Z,17.83
2018-05-13T22:34:59.240Z,18.10
2018-05-13T22:38:31.728Z,16.63
2018-05-13T22:42:04.979Z,17.20
2018-05-13T22:45:38.377Z,20.43
2018-05-13T22:49:11.637Z,20.00
2018-05-13T22:52:44.134Z,29.70
2018-05-13T22:56:16.632Z,24.07
2018-05-13T22:59:49.104Z,25.27
2018-05-13T23:03:21.592Z,22.13
2018-05-13T23:06:54.084Z,22.43
2018-05-13T23:10:27.370Z,21.30
2018-05-13T23:13:59.849Z,21.47
2018-05-13T23:17:32.340Z,20.80
2018-05-13T23:21:04.828Z,23.83
2018-05-13T23:24:38.169Z,20.90
2018-05-13T23:28:10.660Z,19.03
2018-05-13T23:31:43.149Z,19.40
2018-05-13T23:35:15.639Z,18.97
2018-05-13T23:38:48.114Z,17.80
2018-05-13T23:42:20.624Z,17.57
2018-05-13T23:45:53.104Z,17.70
2018-05-13T23:49:27.115Z,19.33
2018-05-13T23:52:59.623Z,16.50
2018-05-13T23:56:32.903Z,15.50
